createdAt,value
2018-03-11T06:30:33.632Z,10.60
2018-03-11T06:33:05.504Z,10.60
2018-03-11T06:35:37.392Z,10.60
2018-03-11T06:38:16.008Z,10.60
2018-03-11T06:40:47.899Z,10.60
2018-03-11T06:43:20.532Z,10.70
2018-03-11T06:45:52.664Z,10.60
2018-03-11T06:48:24.539Z,10.70
2018-03-11T06:50:56.427Z,10.80
2018-03-11T06:53:28.305Z,10.80
2018-03-11T06:56:00.228Z,10.80
2018-03-11T06:58:32.372Z,10.80
2018-03-11T07:01:04.259Z,10.80
2018-03-11T07:03:36.396Z,10.90
2018-03-11T07:06:08.564Z,10.90
2018-03-11T07:08:40.450Z,11.00
2018-03-11T07:11:12.332Z,11.10
2018-03-11T07:13:44.203Z,11.20
2018-03-11T07:16:16.136Z,11.20
2018-03-11T07:18:48.736Z,11.30
2018-03-11T07:21:20.633Z,11.30
2018-03-11T07:23:52.532Z,11.30
2018-03-11T07:26:24.668Z,11.30
2018-03-11T07:28:56.604Z,11.40
2018-03-11T07:31:28.624Z,11.40
2018-03-11T07:34:00.507Z,11.40
2018-03-11T07:36:32.395Z,11.40
2018-03-11T07:39:05.031Z,11.50
2018-03-11T07:41:36.923Z,11.40
2018-03-11T07:44:08.799Z,11.50
2018-03-11T07:46:41.451Z,11.60
2018-03-11T07:49:13.361Z,11.50
2018-03-11T07:51:45.524Z,11.60
2018-03-11T07:54:17.404Z,11.60
2018-03-11T07:56:49.296Z,11.60
2018-03-11T07:59:21.166Z,11.60
2018-03-11T08:01:53.056Z,11.70
2018-03-11T08:04:24.932Z,11.60
2018-03-11T08:06:56.815Z,11.60
2018-03-11T08:09:28.696Z,11.60
2018-03-11T08:12:00.584Z,11.60
2018-03-11T08:14:33.226Z,11.60
2018-03-11T08:17:05.111Z,11.60
2018-03-11T08:19:36.984Z,11.60
2018-03-11T08:22:09.637Z,11.60
2018-03-11T08:24:41.515Z,11.60
2018-03-11T08:27:14.170Z,11.70
2018-03-11T08:29:46.036Z,11.70
2018-03-11T08:32:17.923Z,11.70
2018-03-11T08:34:50.569Z,11.90
2018-03-11T08:37:22.457Z,11.80
2018-03-11T08:39:55.095Z,11.90
2018-03-11T08:42:26.979Z,12.00
2018-03-11T08:44:58.862Z,12.00
2018-03-11T08:47:31.514Z,12.10
2018-03-11T08:50:03.383Z,12.10
2018-03-11T08:52:35.273Z,12.10
2018-03-11T08:55:07.438Z,12.10
2018-03-11T08:57:39.320Z,12.20
2018-03-11T09:00:11.196Z,12.30
2018-03-11T09:02:43.079Z,12.40
2018-03-11T09:05:14.947Z,12.50
2018-03-11T09:07:46.836Z,12.70
2018-03-11T09:10:18.707Z,12.80
2018-03-11T09:12:50.615Z,13.00
2018-03-11T09:15:22.496Z,13.10
2018-03-11T09:17:54.384Z,13.20
2018-03-11T09:20:26.256Z,13.30
2018-03-11T09:22:58.145Z,13.30
2018-03-11T09:25:30.263Z,13.40
2018-03-11T09:28:02.152Z,13.50
2018-03-11T09:30:35.826Z,13.50
2018-03-11T09:33:07.991Z,13.50
2018-03-11T09:35:39.864Z,13.60
2018-03-11T09:38:11.743Z,13.60
2018-03-11T09:40:43.626Z,13.70
2018-03-11T09:43:15.716Z,13.70
2018-03-11T09:45:48.351Z,13.80
2018-03-11T09:48:20.231Z,13.90
2018-03-11T09:50:52.103Z,14.00
2018-03-11T09:53:23.992Z,14.10
2018-03-11T09:55:56.159Z,14.10
2018-03-11T09:58:28.811Z,14.30
2018-03-11T10:01:00.680Z,14.30
2018-03-11T10:03:33.376Z,14.60
2018-03-11T10:06:06.008Z,14.70
2018-03-11T10:08:37.960Z,14.70
2018-03-11T10:11:09.876Z,14.80
2018-03-11T10:13:42.520Z,14.90
2018-03-11T10:16:14.416Z,14.90
2018-03-11T10:18:47.048Z,14.90
2018-03-11T10:21:18.921Z,14.90
2018-03-11T10:23:50.814Z,15.00
2018-03-11T10:26:23.493Z,15.20
2018-03-11T10:28:56.134Z,15.30
2018-03-11T10:31:28.012Z,15.30
2018-03-11T10:34:00.689Z,15.20
2018-03-11T10:36:32.568Z,15.20
2018-03-11T10:39:04.736Z,15.20
2018-03-11T10:41:36.611Z,15.10
2018-03-11T10:44:08.487Z,15.10
2018-03-11T10:46:40.359Z,15.10
2018-03-11T10:49:12.292Z,15.10
2018-03-11T10:51:44.887Z,15.30
2018-03-11T10:54:16.767Z,15.20
2018-03-11T10:56:48.639Z,15.30
2018-03-11T10:59:20.519Z,15.40
2018-03-11T11:01:53.160Z,15.40
2018-03-11T11:04:25.047Z,15.40
2018-03-11T11:06:56.915Z,15.50
2018-03-11T11:09:29.571Z,15.60
2018-03-11T11:12:01.445Z,15.60
2018-03-11T11:14:33.319Z,15.70
2018-03-11T11:17:05.962Z,15.80
2018-03-11T11:19:37.846Z,15.80
2018-03-11T11:22:10.484Z,15.90
2018-03-11T11:24:42.368Z,15.90
2018-03-11T11:27:14.240Z,16.00
2018-03-11T11:29:46.123Z,16.00
2018-03-11T11:32:17.991Z,16.10
2018-03-11T11:34:49.880Z,16.10
2018-03-11T11:37:21.751Z,16.10
2018-03-11T11:39:53.868Z,16.10
2018-03-11T11:42:25.739Z,16.10
2018-03-11T11:44:57.619Z,16.10
2018-03-11T11:47:29.496Z,16.10
2018-03-11T11:50:01.399Z,16.10
2018-03-11T11:52:34.048Z,16.00
2018-03-11T11:55:06.972Z,16.00
2018-03-11T11:57:38.840Z,16.00
2018-03-11T12:00:10.996Z,16.00
2018-03-11T12:02:42.903Z,16.00
2018-03-11T12:05:15.024Z,16.00
2018-03-11T12:07:46.923Z,16.00
2018-03-11T12:10:18.799Z,16.10
2018-03-11T12:12:50.748Z,16.10
2018-03-11T12:15:22.713Z,16.10
2018-03-11T12:17:54.616Z,16.10
2018-03-11T12:20:27.511Z,16.20
2018-03-11T12:22:59.430Z,16.10
2018-03-11T12:25:31.538Z,16.20
2018-03-11T12:28:03.423Z,16.30
2018-03-11T12:30:35.300Z,16.30
2018-03-11T12:33:07.189Z,16.40
2018-03-11T12:35:39.064Z,16.40
2018-03-11T12:38:11.960Z,16.50
2018-03-11T12:40:43.827Z,16.50
2018-03-11T12:43:15.725Z,16.60
2018-03-11T12:45:47.687Z,16.60
2018-03-11T12:48:19.600Z,16.60
2018-03-11T12:50:52.239Z,16.70
2018-03-11T12:53:24.193Z,16.70
2018-03-11T12:55:56.148Z,16.80
2018-03-11T12:58:28.053Z,16.90
2018-03-11T13:01:00.692Z,16.90
2018-03-11T13:03:32.647Z,16.90
2018-03-11T13:06:04.518Z,16.90
2018-03-11T13:08:36.467Z,16.90
2018-03-11T13:11:08.695Z,16.90
2018-03-11T13:13:40.604Z,17.00
2018-03-11T13:16:12.484Z,17.10
2018-03-11T13:18:44.375Z,17.10
2018-03-11T13:21:16.255Z,17.00
2018-03-11T13:23:48.160Z,17.10
2018-03-11T13:26:20.032Z,17.10
2018-03-11T13:28:51.932Z,17.10
2018-03-11T13:31:23.811Z,17.00
2018-03-11T13:34:07.797Z,17.00
2018-03-11T13:36:39.663Z,17.00
2018-03-11T13:39:24.175Z,17.00
2018-03-11T13:41:56.047Z,17.00
2018-03-11T13:44:27.934Z,17.10
2018-03-11T13:47:01.416Z,17.10
2018-03-11T13:49:33.320Z,17.10
2018-03-11T13:52:17.143Z,17.20
2018-03-11T13:54:49.791Z,17.30
2018-03-11T14:00:20.671Z,17.40
2018-03-11T14:02:53.299Z,17.50
2018-03-11T14:05:25.180Z,17.40
2018-03-11T14:07:57.288Z,17.60
2018-03-11T14:10:29.184Z,17.60
2018-03-11T14:13:01.055Z,17.60
2018-03-11T14:15:32.965Z,17.60
2018-03-11T14:18:05.604Z,17.60
2018-03-11T14:20:37.487Z,17.50
2018-03-11T14:23:10.120Z,17.60
2018-03-11T14:25:42.251Z,17.50
2018-03-11T14:28:14.120Z,17.50
2018-03-11T14:30:46.275Z,17.50
2018-03-11T14:33:18.444Z,17.60
2018-03-11T14:35:50.348Z,17.50
2018-03-11T14:38:22.224Z,17.50
2018-03-11T14:40:54.125Z,17.40
2018-03-11T14:43:26.001Z,17.40
2018-03-11T14:45:57.895Z,17.50
2018-03-11T14:48:29.764Z,17.50
2018-03-11T14:51:01.672Z,17.50
2018-03-11T14:53:33.832Z,17.50
2018-03-11T14:56:05.999Z,17.50
2018-03-11T14:58:37.877Z,17.50
2018-03-11T15:01:09.760Z,17.50
2018-03-11T15:03:41.627Z,17.40
2018-03-11T15:06:13.532Z,17.40
2018-03-11T15:08:46.167Z,17.40
2018-03-11T15:11:18.073Z,17.30
2018-03-11T15:13:50.707Z,17.30
2018-03-11T15:16:22.615Z,17.30
2018-03-11T15:18:55.244Z,17.20
2018-03-11T15:21:27.127Z,17.20
2018-03-11T15:23:58.995Z,17.20
2018-03-11T15:26:31.897Z,17.20
2018-03-11T15:29:03.768Z,17.10
2018-03-11T15:31:35.655Z,17.10
2018-03-11T15:34:07.520Z,17.00
2018-03-11T15:36:39.403Z,17.00
2018-03-11T15:39:11.508Z,16.90
2018-03-11T15:41:43.383Z,16.90
2018-03-11T15:44:15.252Z,16.80
2018-03-11T15:46:47.140Z,16.80
2018-03-11T15:49:19.010Z,16.80
2018-03-11T15:51:50.890Z,16.80
2018-03-11T15:54:23.785Z,16.70
2018-03-11T15:56:55.672Z,16.70
2018-03-11T15:59:27.544Z,16.70
2018-03-11T16:01:59.427Z,16.70
2018-03-11T16:04:31.296Z,16.70
2018-03-11T16:07:03.180Z,16.60
2018-03-11T16:09:35.831Z,16.60
2018-03-11T16:12:07.711Z,16.60
2018-03-11T16:14:40.348Z,16.50
2018-03-11T16:17:12.229Z,16.40
2018-03-11T16:19:44.095Z,16.40
2018-03-11T16:22:15.984Z,16.30
2018-03-11T16:24:48.148Z,16.30
2018-03-11T16:27:20.031Z,16.20
2018-03-11T16:29:51.912Z,16.20
2018-03-11T16:32:23.792Z,16.10
2018-03-11T16:34:55.659Z,16.00
2018-03-11T16:37:27.548Z,15.90
2018-03-11T16:39:59.449Z,15.90
2018-03-11T16:42:31.320Z,15.80
2018-03-11T16:45:03.204Z,15.70
2018-03-11T16:47:35.850Z,15.60
2018-03-11T16:50:07.723Z,15.60
2018-03-11T16:52:39.607Z,15.50
2018-03-11T16:55:12.244Z,15.40
2018-03-11T16:57:44.887Z,15.30
2018-03-11T17:00:16.756Z,15.20
2018-03-11T17:02:48.641Z,15.20
2018-03-11T17:05:20.512Z,15.10
2018-03-11T17:07:52.404Z,15.00
2018-03-11T17:10:25.032Z,14.90
2018-03-11T17:12:56.916Z,14.90
2018-03-11T17:15:28.797Z,14.80
2018-03-11T17:18:01.449Z,14.70
2018-03-11T17:20:33.332Z,14.70
2018-03-11T17:23:05.221Z,14.60
2018-03-11T17:25:37.095Z,14.50
2018-03-11T17:28:08.984Z,14.50
2018-03-11T17:30:40.851Z,14.40
2018-03-11T17:33:12.742Z,14.40
2018-03-11T17:35:45.382Z,14.20
2018-03-11T17:38:17.481Z,14.20
2018-03-11T17:40:50.144Z,14.10
2018-03-11T17:43:22.030Z,14.10
2018-03-11T17:45:54.668Z,14.00
2018-03-11T17:48:27.129Z,14.00
2018-03-11T17:50:58.990Z,13.90
2018-03-11T17:53:30.878Z,13.90
2018-03-11T17:56:02.748Z,13.90
2018-03-11T17:58:34.937Z,13.80
2018-03-11T18:01:06.807Z,13.80
2018-03-11T18:03:38.692Z,13.70
2018-03-11T18:06:10.568Z,13.70
2018-03-11T18:08:42.499Z,13.70
2018-03-11T18:11:14.352Z,13.60
2018-03-11T18:13:46.244Z,13.60
2018-03-11T18:16:18.121Z,13.60
2018-03-11T18:18:50.004Z,13.50
2018-03-11T18:21:22.639Z,13.40
2018-03-11T18:23:54.524Z,13.40
2018-03-11T18:26:26.399Z,13.40
2018-03-11T18:28:59.043Z,13.30
2018-03-11T18:31:31.976Z,13.30
2018-03-11T18:34:03.864Z,13.30
2018-03-11T18:36:35.771Z,13.30
2018-03-11T18:39:07.713Z,13.20
2018-03-11T18:41:39.673Z,13.20
2018-03-11T18:44:11.556Z,13.20
2018-03-11T18:46:43.427Z,13.20
2018-03-11T18:49:16.079Z,13.20
2018-03-11T18:51:47.948Z,13.10
2018-03-11T18:54:19.836Z,13.20
2018-03-11T18:56:52.480Z,13.10
2018-03-11T18:59:24.360Z,13.10
2018-03-11T19:01:57.009Z,13.10
2018-03-11T19:04:28.887Z,13.10
2018-03-11T19:07:01.084Z,13.00
2018-03-11T19:09:33.024Z,13.10
2018-03-11T19:12:04.904Z,13.00
2018-03-11T19:14:37.556Z,13.00
2018-03-11T19:17:09.492Z,13.00
2018-03-11T19:19:41.380Z,13.00
2018-03-11T19:22:13.247Z,12.90
2018-03-11T19:24:45.898Z,12.90
2018-03-11T19:27:17.764Z,12.90
2018-03-11T19:29:49.972Z,12.80
2018-03-11T19:32:21.888Z,12.80
2018-03-11T19:34:53.836Z,12.80
2018-03-11T19:37:25.710Z,12.80
2018-03-11T19:39:57.599Z,12.70
2018-03-11T19:42:29.472Z,12.70
2018-03-11T19:45:02.120Z,12.70
2018-03-11T19:47:34.014Z,12.70
2018-03-11T19:50:05.896Z,12.70
2018-03-11T19:52:37.784Z,12.60
2018-03-11T19:55:09.667Z,12.60
2018-03-11T19:57:41.552Z,12.60
2018-03-11T20:00:14.252Z,12.60
2018-03-11T20:02:46.396Z,12.60
2018-03-11T20:05:18.292Z,12.50
2018-03-11T20:07:50.159Z,12.50
2018-03-11T20:10:22.069Z,12.50
2018-03-11T20:12:54.700Z,12.40
2018-03-11T20:15:26.583Z,12.40
2018-03-11T20:17:58.451Z,12.40
2018-03-11T20:20:30.335Z,12.40
2018-03-11T20:23:02.968Z,12.40
2018-03-11T20:25:35.184Z,12.40
2018-03-11T20:28:07.067Z,12.40
2018-03-11T20:30:39.003Z,12.40
2018-03-11T20:33:11.644Z,12.40
2018-03-11T20:35:43.529Z,12.40
2018-03-11T20:38:16.164Z,12.30
2018-03-11T20:40:48.048Z,12.30
2018-03-11T20:43:20.692Z,12.20
2018-03-11T20:45:52.580Z,12.20
2018-03-11T20:48:24.687Z,12.20
